McEwen, TN (37101)

8:55 PM CDT on October 24, 2014 (GMT -0500)
KTNWAVER2 | Change Station
CLOSE
Current Station
Personal Weather Station
Location: Waverly, TN
Elevation: 453 ft
Nearby Weather Stations

Elev 453 ft 36.16 °N, 87.90 °W | Updated 3 minutes ago

Clear
Clear
55.5 °F
Feels Like 55.5 °F
N
0.0
Wind Variable Wind from NW
Gusts 0.0 mph

Today
High -- | Low -- °F
--% Chance of Precip.
Yesterday
High -- | Low -- °F
Precip. -- in
7:05 AM 6:03 PM
New Moon, 1% visible
Pressure 30.09 in
Visibility 10.0 miles
Clouds Clear
Dew Point 53 °F
Humidity 92%
Rainfall 0.00 in
Snow Depth Not available.
UV 0 out of 12
Pollen 1.50 out of 12
Air Quality Not available.
Flu Activity No Activity
METAR KHOP 250058Z AUTO 00000KT 10SM CLR 14/12 A3008 RMK AO2 SLP188 T01440124

More Conditions Fewer Conditions

Pressure 30.09 in
Visibility 10.0 miles
Clouds Clear
Dew Point 53 °F
Humidity 92%
Rainfall 0.00 in
Snow Depth Not available.
UV 0 out of 12
Pollen 1.50 out of 12
Air Quality Not available.
Flu Activity No Activity
METAR KHOP 250058Z AUTO 00000KT 10SM CLR 14/12 A3008 RMK AO2 SLP188 T01440124

More Conditions Fewer Conditions

10-Day Weather Forecast

Almanac

Astronomy

Oct. 24, 2014 Rise Set
Actual Time 7:05 AM CDT 6:03 PM CDT
Civil Twilight 6:39 AM CDT 6:29 PM CDT
Nautical Twilight 6:09 AM CDT 6:59 PM CDT
Astronomical Twilight 5:39 AM CDT 7:29 PM CDT
Moon 7:43 AM CDT (10/24) 6:44 PM CDT (10/24)
Length of Visible Light 11h 50m
Length of Day
10h 57m
Tomorrow will be 2m 6s shorter.
New Moon, 1% of the Moon is Illuminated
Today
New Moon
Oct 30
First Quarter
Nov 6
Full
Nov 14
Last Quarter
Nov 22
New

Today's Extremes

State Highs State Lows

Community

WunderPhotos

Upload Photos

1,764,749 photos uploaded!

WunderBlogs® & News

Nearby

Snow Depth

Station Depth Elevation
No new snow has been reported.

Earthquake Activity

City Distance Mag. Time & Date
No recent earthquake activity has been reported nearby.
Minimum magnitude displayed is 2.5.

Coastal Water Temperatures

Place Temperature
No Stations Reporting

Nearby Weather Stations